createdAt,value
2023-02-16T00:03:22.707Z,99.90
2023-02-16T00:11:05.347Z,99.90
2023-02-16T00:16:23.466Z,99.90
2023-02-16T00:18:51.107Z,99.90
2023-02-16T00:26:16.480Z,99.90
2023-02-16T00:28:44.055Z,99.90
2023-02-16T00:31:20.832Z,99.90
2023-02-16T00:36:15.583Z,99.90
2023-02-16T00:41:36.762Z,99.90
2023-02-16T00:44:04.319Z,99.90
2023-02-16T00:48:58.505Z,99.90
2023-02-16T00:58:51.958Z,99.90
2023-02-16T01:01:21.700Z,99.90
2023-02-16T01:09:35.658Z,99.90
2023-02-16T01:12:05.186Z,99.90
2023-02-16T01:14:33.591Z,99.90
2023-02-16T01:17:00.809Z,99.90
2023-02-16T01:19:27.638Z,99.90
2023-02-16T01:24:21.670Z,99.90
2023-02-16T01:26:50.567Z,99.90
2023-02-16T01:29:19.901Z,99.90
2023-02-16T01:34:15.227Z,99.90
2023-02-16T01:36:47.741Z,99.90
2023-02-16T01:39:20.100Z,99.90
2023-02-16T01:44:29.815Z,99.90
2023-02-16T01:47:15.402Z,99.90
2023-02-16T01:49:42.251Z,99.90
2023-02-16T01:52:33.988Z,99.90
2023-02-16T01:55:04.540Z,99.90
2023-02-16T01:57:46.248Z,99.90
2023-02-16T02:00:25.136Z,99.90
2023-02-16T02:03:20.281Z,99.90
2023-02-16T02:05:48.682Z,99.90
2023-02-16T02:08:30.511Z,99.90
2023-02-16T02:11:16.294Z,99.90
2023-02-16T02:14:30.033Z,99.90
2023-02-16T02:17:04.113Z,99.90
2023-02-16T02:19:37.417Z,99.90
2023-02-16T02:22:58.014Z,99.90
2023-02-16T02:25:27.663Z,99.90
2023-02-16T02:27:57.942Z,99.90
2023-02-16T02:30:41.476Z,99.90
2023-02-16T02:33:26.156Z,99.90
2023-02-16T02:36:08.620Z,99.90
2023-02-16T02:39:01.140Z,99.90
2023-02-16T02:42:06.567Z,99.90
2023-02-16T02:45:10.150Z,99.90
2023-02-16T02:47:42.216Z,99.90
2023-02-16T02:50:36.796Z,99.90
2023-02-16T02:53:13.108Z,99.90
2023-02-16T02:56:08.860Z,99.90
2023-02-16T02:58:55.986Z,99.90
2023-02-16T03:01:24.081Z,99.90
2023-02-16T03:03:55.325Z,99.90
2023-02-16T03:06:27.499Z,99.90
2023-02-16T03:09:00.457Z,99.90
2023-02-16T03:11:48.276Z,99.90
2023-02-16T03:14:18.300Z,99.90
2023-02-16T03:16:49.579Z,99.90
2023-02-16T03:19:37.191Z,99.90
2023-02-16T03:22:23.837Z,99.90
2023-02-16T03:25:09.058Z,99.90
2023-02-16T03:27:58.081Z,99.90
2023-02-16T03:30:27.175Z,99.90
2023-02-16T03:37:49.430Z,99.90
2023-02-16T03:40:29.977Z,99.90
2023-02-16T03:43:00.655Z,99.90
2023-02-16T03:45:28.406Z,99.90
2023-02-16T03:47:55.599Z,99.90
2023-02-16T03:50:22.919Z,99.90
2023-02-16T03:55:17.348Z,99.90
2023-02-16T03:57:44.177Z,99.90
2023-02-16T04:05:06.017Z,99.90
2023-02-16T04:15:09.964Z,99.90
2023-02-16T04:20:05.585Z,99.90
2023-02-16T04:32:21.467Z,99.90
2023-02-16T04:37:16.020Z,99.90
2023-02-16T04:42:10.162Z,99.90
2023-02-16T04:47:04.534Z,99.90
2023-02-16T04:49:31.357Z,99.90
2023-02-16T05:01:47.694Z,99.90
2023-02-16T05:06:42.269Z,99.90
2023-02-16T05:14:47.049Z,99.90
2023-02-16T05:17:23.765Z,99.90
2023-02-16T05:19:56.663Z,99.90
2023-02-16T05:22:24.140Z,99.90
2023-02-16T05:27:22.275Z,99.90
2023-02-16T05:32:17.516Z,99.90
2023-02-16T05:34:47.138Z,99.90
2023-02-16T05:37:15.630Z,99.90
2023-02-16T05:39:42.500Z,99.90
2023-02-16T05:44:37.861Z,99.90
2023-02-16T05:49:31.990Z,99.90
2023-02-16T05:51:59.174Z,99.90
2023-02-16T05:54:26.163Z,99.90
2023-02-16T05:59:20.942Z,99.90
2023-02-16T06:01:51.645Z,99.90
2023-02-16T06:04:20.239Z,99.90
2023-02-16T06:06:47.515Z,99.90
2023-02-16T06:09:14.415Z,99.90
2023-02-16T06:16:37.420Z,99.90
2023-02-16T06:19:05.485Z,99.90
2023-02-16T06:23:59.990Z,99.90
2023-02-16T06:26:27.136Z,99.90
2023-02-16T06:28:55.141Z,99.90
2023-02-16T06:31:22.709Z,99.90
2023-02-16T06:33:49.953Z,99.90
2023-02-16T06:36:17.399Z,99.90
2023-02-16T06:41:12.195Z,99.90
2023-02-16T06:48:33.725Z,99.90
2023-02-16T07:05:44.228Z,99.90
2023-02-16T07:10:49.847Z,99.90
2023-02-16T07:23:07.069Z,99.90
2023-02-16T07:28:04.060Z,99.90
2023-02-16T07:35:25.916Z,99.90
2023-02-16T07:37:52.800Z,99.90
2023-02-16T07:40:19.798Z,99.90
2023-02-16T07:42:46.768Z,99.90
2023-02-16T07:45:13.655Z,99.90
2023-02-16T07:52:35.394Z,99.90
2023-02-16T07:55:02.226Z,99.90
2023-02-16T07:57:30.036Z,99.90
2023-02-16T08:02:24.879Z,99.90
2023-02-16T08:07:20.472Z,99.90
2023-02-16T08:12:16.272Z,99.90
2023-02-16T08:17:10.624Z,99.90
2023-02-16T08:22:06.459Z,99.90
2023-02-16T08:27:03.948Z,99.90
2023-02-16T08:29:31.661Z,99.90
2023-02-16T08:31:58.765Z,99.90
2023-02-16T08:36:56.668Z,99.90
2023-02-16T08:39:31.844Z,99.90
2023-02-16T08:42:00.296Z,99.90
2023-02-16T08:44:29.091Z,99.90
2023-02-16T08:46:59.379Z,99.90
2023-02-16T08:51:57.474Z,99.90
2023-02-16T08:54:30.368Z,99.90
2023-02-16T08:56:59.800Z,99.90
2023-02-16T08:59:28.811Z,99.90
2023-02-16T09:01:58.265Z,99.60
2023-02-16T09:04:27.558Z,98.20
2023-02-16T09:06:56.242Z,97.60
2023-02-16T09:09:23.105Z,97.20
2023-02-16T09:14:23.042Z,96.60
2023-02-16T09:16:50.054Z,96.30
2023-02-16T09:19:20.718Z,95.80
2023-02-16T09:21:50.706Z,95.60
2023-02-16T09:29:14.018Z,94.60
2023-02-16T09:31:42.353Z,94.40
2023-02-16T09:34:22.205Z,94.30
2023-02-16T09:36:50.209Z,94.10
2023-02-16T09:39:17.860Z,93.70
2023-02-16T09:41:59.669Z,94.30
2023-02-16T09:44:29.534Z,94.80
2023-02-16T09:47:01.550Z,94.70
2023-02-16T09:52:27.909Z,94.40
2023-02-16T09:54:59.881Z,94.30
2023-02-16T09:57:48.788Z,94.20
2023-02-16T10:00:30.022Z,95.30
2023-02-16T10:03:21.717Z,94.00
2023-02-16T10:06:13.672Z,93.40
2023-02-16T10:09:08.771Z,91.70
2023-02-16T10:11:51.020Z,91.20
2023-02-16T10:14:45.796Z,90.70
2023-02-16T10:17:37.690Z,91.30
2023-02-16T10:20:18.658Z,91.50
2023-02-16T10:22:55.293Z,91.40
2023-02-16T10:25:29.480Z,89.50
2023-02-16T10:28:22.813Z,89.20
2023-02-16T10:30:52.535Z,88.70
2023-02-16T10:33:45.216Z,85.90
2023-02-16T10:36:34.125Z,87.50
2023-02-16T10:39:22.998Z,89.60
2023-02-16T10:42:06.594Z,85.50
2023-02-16T10:44:45.974Z,82.70
2023-02-16T10:47:37.318Z,83.50
2023-02-16T10:50:07.177Z,85.10
2023-02-16T10:52:39.552Z,82.60
2023-02-16T10:55:07.098Z,80.70
2023-02-16T11:00:10.447Z,78.30
2023-02-16T11:02:44.262Z,79.10
2023-02-16T11:05:26.511Z,80.60
2023-02-16T11:08:01.526Z,78.10
2023-02-16T11:10:48.908Z,77.20
2023-02-16T11:13:37.409Z,78.50
2023-02-16T11:16:13.903Z,76.90
2023-02-16T11:18:43.734Z,76.70
2023-02-16T11:21:12.325Z,78.80
2023-02-16T11:23:44.225Z,78.50
2023-02-16T11:26:11.807Z,81.00
2023-02-16T11:28:44.226Z,81.60
2023-02-16T11:31:24.952Z,80.50
2023-02-16T11:34:03.310Z,80.10
2023-02-16T11:36:37.709Z,81.00
2023-02-16T11:39:25.622Z,81.20
2023-02-16T11:42:08.197Z,79.80
2023-02-16T11:44:51.257Z,81.90
2023-02-16T11:47:39.668Z,80.20
2023-02-16T11:50:21.582Z,80.90
2023-02-16T11:52:51.890Z,81.90
2023-02-16T11:55:33.482Z,81.50
2023-02-16T11:58:20.295Z,80.40
2023-02-16T12:01:04.983Z,79.90
2023-02-16T12:06:19.593Z,82.30
2023-02-16T12:09:09.811Z,83.30
2023-02-16T12:11:45.627Z,83.60
2023-02-16T12:14:33.667Z,83.30
2023-02-16T12:17:28.220Z,83.80
2023-02-16T12:20:02.771Z,83.50
2023-02-16T12:22:44.694Z,90.50
2023-02-16T12:25:36.865Z,85.00
2023-02-16T12:28:16.147Z,84.90
2023-02-16T12:31:11.586Z,84.30
2023-02-16T12:33:57.401Z,84.30
2023-02-16T12:36:46.928Z,90.90
2023-02-16T12:39:13.804Z,87.00
2023-02-16T12:41:47.510Z,90.30
2023-02-16T12:44:42.873Z,85.80
2023-02-16T12:47:14.696Z,85.30
2023-02-16T12:49:54.063Z,86.60
2023-02-16T12:52:56.493Z,85.80
2023-02-16T12:58:15.008Z,84.40
2023-02-16T13:00:48.874Z,86.20
2023-02-16T13:05:45.640Z,86.30
2023-02-16T13:08:39.235Z,85.40
2023-02-16T13:11:20.743Z,85.90
2023-02-16T13:13:49.925Z,87.10
2023-02-16T13:16:30.854Z,87.00
2023-02-16T13:21:56.847Z,87.20
2023-02-16T13:24:32.470Z,88.80
2023-02-16T13:27:31.393Z,88.40
2023-02-16T13:30:22.985Z,90.60
2023-02-16T13:33:22.997Z,87.50
2023-02-16T13:35:53.159Z,90.20
2023-02-16T13:38:23.058Z,90.20
2023-02-16T13:41:09.524Z,90.30
2023-02-16T13:43:47.961Z,90.40
2023-02-16T13:46:25.202Z,89.60
2023-02-16T13:51:25.688Z,91.00
2023-02-16T13:53:57.025Z,91.20
2023-02-16T13:58:53.351Z,91.00
2023-02-16T14:01:32.004Z,91.60
2023-02-16T14:04:01.526Z,91.50
2023-02-16T14:06:32.553Z,91.80
2023-02-16T14:09:14.599Z,92.30
2023-02-16T14:11:53.595Z,92.70
2023-02-16T14:14:31.454Z,93.10
2023-02-16T14:17:16.754Z,92.90
2023-02-16T14:20:05.320Z,93.30
2023-02-16T14:22:43.660Z,93.40
2023-02-16T14:25:22.591Z,96.50
2023-02-16T14:28:26.944Z,93.90
2023-02-16T14:30:56.134Z,94.10
2023-02-16T14:33:40.870Z,94.30
2023-02-16T14:36:19.722Z,94.40
2023-02-16T14:38:52.078Z,94.70
2023-02-16T14:41:32.499Z,94.70
2023-02-16T14:47:00.955Z,95.30
2023-02-16T14:49:58.229Z,95.30
2023-02-16T14:52:49.806Z,96.40
2023-02-16T14:55:38.220Z,96.70
2023-02-16T14:58:38.127Z,96.10
2023-02-16T15:01:13.955Z,99.70
2023-02-16T15:06:35.204Z,97.40
2023-02-16T15:09:19.190Z,97.30
2023-02-16T15:12:15.412Z,97.90
2023-02-16T15:15:01.572Z,99.90
2023-02-16T15:17:44.981Z,98.70
2023-02-16T15:20:17.881Z,98.80
2023-02-16T15:22:56.088Z,99.20
2023-02-16T15:25:24.975Z,99.90
2023-02-16T15:28:00.957Z,99.90
2023-02-16T15:30:30.401Z,99.90
2023-02-16T15:33:27.991Z,99.90
2023-02-16T15:36:04.966Z,99.90
2023-02-16T15:38:38.173Z,99.90
2023-02-16T15:41:26.431Z,99.90
2023-02-16T15:43:53.363Z,99.90
2023-02-16T15:46:31.673Z,99.90
2023-02-16T15:49:00.075Z,99.90
2023-02-16T15:51:31.701Z,99.90
2023-02-16T15:54:08.045Z,99.90
2023-02-16T15:56:49.139Z,99.90
2023-02-16T15:59:35.876Z,99.90
2023-02-16T16:02:18.702Z,99.90
2023-02-16T16:04:56.805Z,99.90
2023-02-16T16:07:29.918Z,99.90
2023-02-16T16:09:57.827Z,99.90
2023-02-16T16:12:26.431Z,99.90
2023-02-16T16:14:58.727Z,99.90
2023-02-16T16:17:33.992Z,99.90
2023-02-16T16:20:24.234Z,99.90
2023-02-16T16:23:05.821Z,99.90
2023-02-16T16:25:51.422Z,99.90
2023-02-16T16:28:27.279Z,99.90
2023-02-16T16:31:10.516Z,99.90
2023-02-16T16:33:59.922Z,99.90
2023-02-16T16:36:35.220Z,99.90
2023-02-16T16:41:40.246Z,99.90
2023-02-16T16:44:12.367Z,99.90
2023-02-16T16:46:39.469Z,99.90
2023-02-16T16:49:15.851Z,99.90
2023-02-16T16:51:43.704Z,99.90
2023-02-16T16:54:32.859Z,99.90
2023-02-16T16:57:03.112Z,99.90
2023-02-16T17:09:21.491Z,99.90
2023-02-16T17:11:48.290Z,99.90
2023-02-16T17:14:18.068Z,99.90
2023-02-16T17:16:52.861Z,99.90
2023-02-16T17:19:22.498Z,99.90
2023-02-16T17:41:30.008Z,99.90
2023-02-16T17:46:26.831Z,99.90
2023-02-16T17:48:55.388Z,99.90
2023-02-16T17:51:24.912Z,99.90
2023-02-16T17:53:55.691Z,99.90
2023-02-16T17:56:23.922Z,99.90
2023-02-16T17:58:53.826Z,99.90
2023-02-16T18:01:21.657Z,99.90
2023-02-16T18:06:21.698Z,99.90
2023-02-16T18:13:43.812Z,99.90
2023-02-16T18:16:21.595Z,99.90
2023-02-16T18:18:48.881Z,99.90
2023-02-16T18:21:18.749Z,99.90
2023-02-16T18:26:15.299Z,99.90
2023-02-16T18:36:05.246Z,99.90
2023-02-16T18:40:59.876Z,99.90
2023-02-16T18:48:21.863Z,99.90
2023-02-16T18:50:49.115Z,99.90
2023-02-16T18:55:43.598Z,99.90
2023-02-16T18:58:13.326Z,99.90
2023-02-16T19:00:40.405Z,99.90
2023-02-16T19:10:30.124Z,99.90
2023-02-16T19:17:52.438Z,99.90
2023-02-16T19:20:19.796Z,99.90
2023-02-16T19:22:47.653Z,99.90
2023-02-16T19:25:15.489Z,99.90
2023-02-16T19:27:43.498Z,99.90
2023-02-16T19:35:12.531Z,99.90
2023-02-16T19:37:39.704Z,99.90
2023-02-16T19:40:09.315Z,99.90
2023-02-16T19:42:39.671Z,99.90
2023-02-16T19:52:31.430Z,99.90
2023-02-16T19:54:58.325Z,99.90
2023-02-16T19:59:52.790Z,99.90
2023-02-16T20:02:19.755Z,99.90
2023-02-16T20:14:43.801Z,99.90
2023-02-16T20:17:10.686Z,99.90
2023-02-16T20:22:04.766Z,99.90
2023-02-16T20:29:32.109Z,99.90
2023-02-16T20:31:59.064Z,99.90
2023-02-16T20:34:27.765Z,99.90
2023-02-16T20:39:22.871Z,99.90
2023-02-16T20:46:45.289Z,99.90
2023-02-16T20:51:41.607Z,99.90
2023-02-16T20:54:08.704Z,99.90
2023-02-16T21:01:39.959Z,99.90
2023-02-16T21:04:08.754Z,99.90
2023-02-16T21:06:36.720Z,99.90
2023-02-16T21:09:07.778Z,99.90
2023-02-16T21:11:35.123Z,99.90
2023-02-16T21:21:28.213Z,99.90
2023-02-16T21:23:55.797Z,99.90
2023-02-16T21:26:24.646Z,99.90
2023-02-16T21:28:52.574Z,99.90
2023-02-16T21:31:23.539Z,99.90
2023-02-16T21:33:51.572Z,99.90
2023-02-16T21:36:21.863Z,99.90
2023-02-16T21:38:49.235Z,99.90
2023-02-16T21:41:25.568Z,99.90
2023-02-16T21:43:53.405Z,99.90
2023-02-16T21:46:22.609Z,99.90
2023-02-16T21:48:53.209Z,99.90
2023-02-16T21:51:24.287Z,99.90
2023-02-16T21:53:51.718Z,99.90
2023-02-16T21:56:33.883Z,99.90
2023-02-16T21:59:01.495Z,99.90
2023-02-16T22:01:56.482Z,99.90
2023-02-16T22:04:23.516Z,99.90
2023-02-16T22:06:51.378Z,99.90
2023-02-16T22:09:21.579Z,99.90
2023-02-16T22:11:49.444Z,99.90
2023-02-16T22:16:45.439Z,99.90
2023-02-16T22:19:14.096Z,99.90
2023-02-16T22:21:42.362Z,99.90
2023-02-16T22:24:12.617Z,99.90
2023-02-16T22:26:39.892Z,99.90
2023-02-16T22:29:07.881Z,99.90
2023-02-16T22:31:35.787Z,99.90
2023-02-16T22:34:08.614Z,99.90
2023-02-16T22:36:37.438Z,99.90
2023-02-16T22:39:04.641Z,99.90
2023-02-16T22:44:02.299Z,99.90
2023-02-16T22:46:30.152Z,99.90
2023-02-16T22:48:58.839Z,99.90
2023-02-16T22:51:29.457Z,99.90
2023-02-16T22:53:58.747Z,99.90
2023-02-16T22:56:27.012Z,99.90
2023-02-16T22:58:57.527Z,99.90
2023-02-16T23:01:26.464Z,99.90
2023-02-16T23:03:57.624Z,99.90
2023-02-16T23:06:31.140Z,99.90
2023-02-16T23:09:00.684Z,99.90
2023-02-16T23:11:28.068Z,99.90
2023-02-16T23:13:55.081Z,99.90
2023-02-16T23:16:24.270Z,99.90
2023-02-16T23:21:19.730Z,99.90
2023-02-16T23:23:47.614Z,99.90
2023-02-16T23:28:43.322Z,99.90
2023-02-16T23:31:12.682Z,99.90
2023-02-16T23:41:09.422Z,99.90
2023-02-16T23:46:05.705Z,99.90
2023-02-16T23:48:32.709Z,99.90
2023-02-16T23:53:28.404Z,99.90
2023-02-16T23:56:07.991Z,99.90
2023-02-16T23:58:37.661Z,99.90
